createdAt,value
2017-07-09T00:00:06.033Z,77.90
2017-07-09T00:02:34.365Z,78.10
2017-07-09T00:05:02.724Z,78.30
2017-07-09T00:07:31.056Z,78.40
2017-07-09T00:09:59.433Z,78.50
2017-07-09T00:12:27.760Z,78.60
2017-07-09T00:14:56.108Z,78.70
2017-07-09T00:17:24.432Z,78.70
2017-07-09T00:19:52.772Z,78.60
2017-07-09T00:22:21.087Z,78.60
2017-07-09T00:24:49.416Z,78.80
2017-07-09T00:27:17.761Z,78.80
2017-07-09T00:29:46.081Z,78.60
2017-07-09T00:32:14.420Z,78.50
2017-07-09T00:34:42.776Z,78.30
2017-07-09T00:37:11.121Z,78.40
2017-07-09T00:39:39.437Z,78.40
2017-07-09T00:42:07.797Z,78.20
2017-07-09T00:44:36.117Z,77.90
2017-07-09T00:47:04.437Z,77.70
2017-07-09T00:49:32.782Z,77.60
2017-07-09T00:52:01.112Z,77.50
2017-07-09T00:54:29.452Z,77.60
2017-07-09T00:56:57.781Z,77.50
2017-07-09T00:59:26.171Z,77.30
2017-07-09T01:01:54.492Z,77.10
2017-07-09T01:04:22.828Z,77.70
2017-07-09T01:06:51.148Z,77.10
2017-07-09T01:09:19.473Z,77.40
2017-07-09T01:11:47.821Z,77.50
2017-07-09T01:14:16.136Z,77.60
2017-07-09T01:16:44.485Z,77.50
2017-07-09T01:19:12.812Z,77.40
2017-07-09T01:21:41.168Z,77.50
2017-07-09T01:24:09.496Z,77.80
2017-07-09T01:26:37.846Z,77.90
2017-07-09T01:29:06.168Z,77.60
2017-07-09T01:31:33.744Z,78.20
2017-07-09T01:34:02.081Z,77.40
2017-07-09T01:36:30.405Z,77.40
2017-07-09T01:39:04.583Z,77.60
2017-07-09T01:41:33.003Z,77.80
2017-07-09T01:44:01.337Z,77.60
2017-07-09T01:46:29.658Z,77.60
2017-07-09T01:48:58.008Z,77.30
2017-07-09T01:51:26.340Z,77.50
2017-07-09T01:53:54.661Z,77.70
2017-07-09T01:56:23.072Z,77.80
2017-07-09T01:58:50.627Z,77.80
2017-07-09T02:01:18.968Z,77.60
2017-07-09T02:03:47.288Z,77.60
2017-07-09T02:06:15.628Z,77.50
2017-07-09T02:08:43.950Z,77.50
2017-07-09T02:11:12.297Z,77.40
2017-07-09T02:13:40.653Z,77.60
2017-07-09T02:16:08.973Z,77.70
2017-07-09T02:18:37.327Z,77.90
2017-07-09T02:21:05.647Z,77.90
2017-07-09T02:23:33.990Z,78.00
2017-07-09T02:26:02.316Z,78.10
2017-07-09T02:28:29.910Z,78.10
2017-07-09T02:30:58.237Z,78.20
2017-07-09T02:33:26.564Z,78.40
2017-07-09T02:35:54.908Z,78.50
2017-07-09T02:38:23.227Z,78.70
2017-07-09T02:40:51.571Z,79.00
2017-07-09T02:43:19.891Z,79.20
2017-07-09T02:45:48.268Z,79.30
2017-07-09T02:48:16.589Z,79.70
2017-07-09T02:50:44.955Z,80.10
2017-07-09T02:53:13.276Z,80.20
2017-07-09T02:55:41.596Z,80.40
2017-07-09T02:58:09.939Z,80.60
2017-07-09T03:00:38.294Z,80.50
2017-07-09T03:03:06.672Z,80.50
2017-07-09T03:05:34.999Z,81.20
2017-07-09T03:08:03.345Z,81.10
2017-07-09T03:10:31.666Z,80.50
2017-07-09T03:13:00.015Z,80.40
2017-07-09T03:15:28.343Z,80.40
2017-07-09T03:17:56.668Z,80.50
2017-07-09T03:20:25.007Z,80.40
2017-07-09T03:22:53.325Z,80.50
2017-07-09T03:25:21.668Z,80.60
2017-07-09T03:27:50.007Z,80.80
2017-07-09T03:30:18.339Z,80.90
2017-07-09T03:32:46.658Z,80.90
2017-07-09T03:35:15.062Z,81.00
2017-07-09T03:37:43.389Z,81.10
2017-07-09T03:40:11.787Z,81.00
2017-07-09T03:42:40.125Z,81.00
2017-07-09T03:45:08.450Z,80.90
2017-07-09T03:47:36.793Z,81.00
2017-07-09T03:50:05.115Z,81.00
2017-07-09T03:52:33.462Z,80.90
2017-07-09T03:55:01.802Z,80.80
2017-07-09T03:57:30.159Z,80.70
2017-07-09T03:59:58.497Z,80.50
2017-07-09T04:02:26.821Z,80.60
2017-07-09T04:04:55.174Z,80.50
2017-07-09T04:07:23.492Z,80.60
2017-07-09T04:09:51.832Z,80.40
2017-07-09T04:12:20.158Z,80.30
2017-07-09T04:14:48.492Z,80.40
2017-07-09T04:17:16.818Z,80.50
2017-07-09T04:19:45.160Z,80.90
2017-07-09T04:22:13.471Z,81.00
2017-07-09T04:24:41.787Z,81.10
2017-07-09T04:27:10.126Z,81.30
2017-07-09T04:29:38.446Z,81.60
2017-07-09T04:32:06.786Z,81.80
2017-07-09T04:34:35.103Z,81.90
2017-07-09T04:37:03.455Z,81.70
2017-07-09T04:39:31.775Z,81.70
2017-07-09T04:42:00.116Z,81.90
2017-07-09T04:44:28.431Z,81.90
2017-07-09T04:46:56.751Z,81.90
2017-07-09T04:49:25.105Z,81.60
2017-07-09T04:51:53.431Z,81.40
2017-07-09T04:54:21.769Z,81.20
2017-07-09T04:56:50.080Z,81.10
2017-07-09T04:59:18.420Z,81.30
2017-07-09T05:01:46.732Z,81.10
2017-07-09T05:04:15.085Z,81.00
2017-07-09T05:06:43.405Z,80.90
2017-07-09T05:09:11.806Z,80.70
2017-07-09T05:11:40.225Z,80.50
2017-07-09T05:14:08.571Z,80.20
2017-07-09T05:16:36.921Z,80.00
2017-07-09T05:19:05.236Z,79.90
2017-07-09T05:21:33.571Z,80.60
2017-07-09T05:24:01.897Z,79.70
2017-07-09T05:26:30.286Z,79.40
2017-07-09T05:28:58.613Z,79.10
2017-07-09T05:31:26.940Z,78.90
2017-07-09T05:33:55.292Z,79.40
2017-07-09T05:36:23.619Z,78.50
2017-07-09T05:38:52.001Z,78.10
2017-07-09T05:41:20.326Z,77.80
2017-07-09T05:43:48.672Z,77.90
2017-07-09T05:46:16.996Z,78.00
2017-07-09T05:48:45.337Z,78.10
2017-07-09T05:51:13.691Z,77.90
2017-07-09T05:53:42.065Z,77.50
2017-07-09T05:56:10.410Z,77.20
2017-07-09T05:58:38.735Z,77.50
2017-07-09T06:01:07.076Z,77.60
2017-07-09T06:03:35.405Z,77.20
2017-07-09T06:06:03.765Z,77.00
2017-07-09T06:08:32.081Z,76.80
2017-07-09T06:11:00.605Z,76.70
2017-07-09T06:13:28.920Z,76.40
2017-07-09T06:15:57.265Z,76.10
2017-07-09T06:18:25.611Z,76.20
2017-07-09T06:20:53.993Z,75.90
2017-07-09T06:23:22.360Z,75.70
2017-07-09T06:25:50.672Z,75.00
2017-07-09T06:28:19.174Z,74.70
2017-07-09T06:30:47.522Z,74.40
2017-07-09T06:33:15.856Z,74.10
2017-07-09T06:35:44.206Z,73.40
2017-07-09T06:38:12.527Z,73.20
2017-07-09T06:40:40.870Z,72.20
2017-07-09T06:43:09.188Z,71.40
2017-07-09T06:45:37.525Z,70.90
2017-07-09T06:48:05.850Z,70.20
2017-07-09T06:50:34.204Z,70.10
2017-07-09T06:53:02.521Z,70.00
2017-07-09T06:55:30.841Z,69.70
2017-07-09T06:57:59.186Z,69.40
2017-07-09T07:00:27.517Z,69.00
2017-07-09T07:02:55.859Z,68.50
2017-07-09T07:05:23.414Z,68.10
2017-07-09T07:07:51.754Z,67.50
2017-07-09T07:10:20.066Z,66.70
2017-07-09T07:12:48.410Z,66.40
2017-07-09T07:15:16.734Z,66.90
2017-07-09T07:17:45.086Z,67.10
2017-07-09T07:20:13.420Z,66.60
2017-07-09T07:22:41.739Z,65.50
2017-07-09T07:25:10.077Z,65.20
2017-07-09T07:27:38.458Z,65.50
2017-07-09T07:30:06.771Z,64.90
2017-07-09T07:32:35.090Z,64.30
2017-07-09T07:35:03.433Z,64.20
2017-07-09T07:37:31.755Z,62.60
2017-07-09T07:40:00.071Z,61.80
2017-07-09T07:42:28.409Z,62.10
2017-07-09T07:44:56.758Z,61.30
2017-07-09T07:47:25.109Z,61.30
2017-07-09T07:49:53.433Z,60.50
2017-07-09T07:52:21.769Z,59.80
2017-07-09T07:54:50.085Z,59.50
2017-07-09T07:57:18.468Z,58.60
2017-07-09T07:59:46.783Z,58.50
2017-07-09T08:02:15.093Z,57.70
2017-07-09T08:04:43.433Z,56.50
2017-07-09T08:07:11.752Z,56.00
2017-07-09T08:09:40.665Z,55.10
2017-07-09T08:12:08.984Z,54.70
2017-07-09T08:14:37.321Z,53.70
2017-07-09T08:17:05.654Z,54.80
2017-07-09T08:19:34.005Z,54.90
2017-07-09T08:22:01.559Z,54.80
2017-07-09T08:24:29.885Z,55.00
2017-07-09T08:26:58.224Z,53.90
2017-07-09T08:29:26.545Z,54.20
2017-07-09T08:31:54.884Z,54.00
2017-07-09T08:34:23.201Z,53.60
2017-07-09T08:36:51.550Z,53.40
2017-07-09T08:39:19.869Z,53.00
2017-07-09T08:41:48.264Z,52.70
2017-07-09T08:44:15.856Z,52.60
2017-07-09T08:46:44.180Z,53.10
2017-07-09T08:49:12.544Z,53.20
2017-07-09T08:51:40.877Z,52.80
2017-07-09T08:54:09.220Z,52.20
2017-07-09T08:56:37.536Z,51.10
2017-07-09T08:59:05.851Z,50.40
2017-07-09T09:01:34.184Z,49.80
2017-07-09T09:04:02.506Z,49.10
2017-07-09T09:06:30.896Z,48.60
2017-07-09T09:08:59.216Z,48.60
2017-07-09T09:11:27.559Z,48.60
2017-07-09T09:13:55.921Z,48.30
2017-07-09T09:16:24.243Z,48.60
2017-07-09T09:18:52.577Z,48.30
2017-07-09T09:21:20.897Z,47.70
2017-07-09T09:23:49.252Z,47.00
2017-07-09T09:26:17.585Z,45.60
2017-07-09T09:28:45.915Z,44.50
2017-07-09T09:31:14.256Z,44.00
2017-07-09T09:33:42.572Z,43.90
2017-07-09T09:36:10.931Z,43.00
2017-07-09T09:38:39.261Z,42.90
2017-07-09T09:41:07.616Z,43.70
2017-07-09T09:43:35.949Z,42.40
2017-07-09T09:46:04.274Z,42.20
2017-07-09T09:48:32.617Z,42.40
2017-07-09T09:51:00.941Z,42.90
2017-07-09T09:53:29.288Z,42.20
2017-07-09T09:55:57.619Z,41.70
2017-07-09T09:58:25.972Z,41.30
2017-07-09T10:00:54.289Z,40.80
2017-07-09T10:03:22.612Z,41.20
2017-07-09T10:05:50.961Z,41.80
2017-07-09T10:08:19.288Z,41.50
2017-07-09T10:10:47.906Z,41.60
2017-07-09T10:13:16.229Z,41.80
2017-07-09T10:15:44.588Z,41.30
2017-07-09T10:18:12.908Z,41.60
2017-07-09T10:20:41.229Z,41.80
2017-07-09T10:23:09.572Z,41.20
2017-07-09T10:25:37.893Z,40.20
2017-07-09T10:28:06.263Z,40.30
2017-07-09T10:30:34.600Z,41.20
2017-07-09T10:33:02.940Z,39.60
2017-07-09T10:35:30.496Z,39.60
2017-07-09T10:37:58.842Z,40.00
2017-07-09T10:40:27.176Z,39.30
2017-07-09T10:42:55.496Z,39.60
2017-07-09T10:45:23.831Z,39.90
2017-07-09T10:47:52.157Z,40.80
2017-07-09T10:50:20.541Z,41.30
2017-07-09T10:52:48.885Z,41.60
2017-07-09T10:55:17.255Z,41.40
2017-07-09T10:57:45.568Z,40.90
2017-07-09T11:00:13.917Z,40.90
2017-07-09T11:02:42.240Z,40.50
2017-07-09T11:05:10.598Z,40.00
2017-07-09T11:07:39.005Z,40.20
2017-07-09T11:10:07.297Z,39.90
2017-07-09T11:12:35.638Z,39.00
2017-07-09T11:15:03.953Z,38.60
2017-07-09T11:17:32.301Z,38.50
2017-07-09T11:20:00.621Z,39.10
2017-07-09T11:22:28.984Z,40.00
2017-07-09T11:24:57.301Z,38.70
2017-07-09T11:27:25.620Z,38.80
2017-07-09T11:29:53.984Z,39.70
2017-07-09T11:32:21.554Z,39.70
2017-07-09T11:34:50.030Z,40.00
2017-07-09T11:37:18.348Z,39.70
2017-07-09T11:39:46.729Z,39.70
2017-07-09T11:42:15.051Z,39.40
2017-07-09T11:44:43.393Z,39.70
2017-07-09T11:47:11.724Z,39.90
2017-07-09T11:49:40.048Z,40.50
2017-07-09T11:52:08.394Z,40.40
2017-07-09T11:54:36.726Z,41.10
2017-07-09T11:57:05.069Z,41.70
2017-07-09T11:59:33.391Z,41.80
2017-07-09T12:02:01.740Z,41.40
2017-07-09T12:04:30.060Z,41.20
2017-07-09T12:06:58.434Z,41.30
2017-07-09T12:09:26.755Z,40.70
2017-07-09T12:11:55.080Z,40.40
2017-07-09T12:14:23.412Z,40.10
2017-07-09T12:16:51.736Z,40.10
2017-07-09T12:19:20.084Z,39.60
2017-07-09T12:21:48.409Z,38.30
2017-07-09T12:24:16.745Z,37.90
2017-07-09T12:26:44.307Z,37.90
2017-07-09T12:29:12.657Z,37.90
2017-07-09T12:31:40.972Z,38.30
2017-07-09T12:34:09.296Z,38.20
2017-07-09T12:36:37.639Z,37.40
2017-07-09T12:39:05.188Z,37.30
2017-07-09T12:41:33.539Z,37.60
2017-07-09T12:44:01.861Z,38.50
2017-07-09T12:46:30.206Z,39.00
2017-07-09T12:48:58.524Z,39.30
2017-07-09T12:51:26.909Z,40.00
2017-07-09T12:53:54.473Z,40.10
2017-07-09T12:56:22.799Z,39.80
2017-07-09T12:58:51.140Z,39.60
2017-07-09T13:01:19.470Z,38.20
2017-07-09T13:03:47.821Z,38.10
2017-07-09T13:06:16.148Z,37.60
2017-07-09T13:08:44.491Z,37.30
2017-07-09T13:11:12.809Z,37.30
2017-07-09T13:13:41.146Z,37.90
2017-07-09T13:16:09.476Z,38.30
2017-07-09T13:18:37.816Z,38.90
2017-07-09T13:21:06.138Z,39.00
2017-07-09T13:23:34.499Z,39.20
2017-07-09T13:26:02.817Z,39.50
2017-07-09T13:28:31.141Z,40.00
2017-07-09T13:30:59.484Z,40.30
2017-07-09T13:33:27.808Z,39.60
2017-07-09T13:35:56.153Z,39.30
2017-07-09T13:38:24.478Z,39.20
2017-07-09T13:40:52.825Z,40.00
2017-07-09T13:43:21.135Z,39.80
2017-07-09T13:45:49.484Z,39.60
2017-07-09T13:48:17.832Z,39.50
2017-07-09T13:50:46.176Z,39.40
2017-07-09T13:53:14.493Z,39.80
2017-07-09T13:55:42.855Z,39.70
2017-07-09T13:58:11.180Z,40.60
2017-07-09T14:00:39.523Z,40.30
2017-07-09T14:03:07.867Z,40.70
2017-07-09T14:05:36.194Z,41.10
2017-07-09T14:08:04.539Z,41.40
2017-07-09T14:10:32.952Z,41.50
2017-07-09T14:13:00.527Z,41.50
2017-07-09T14:15:28.100Z,40.00
2017-07-09T14:17:56.446Z,38.70
2017-07-09T14:20:24.769Z,38.90
2017-07-09T14:22:53.210Z,38.70
2017-07-09T14:25:21.559Z,39.10
2017-07-09T14:27:49.880Z,39.70
2017-07-09T14:30:18.228Z,39.60
2017-07-09T14:32:46.553Z,40.10
2017-07-09T14:35:14.896Z,40.00
2017-07-09T14:37:43.216Z,39.70
2017-07-09T14:40:11.647Z,39.60
2017-07-09T14:42:39.969Z,39.60
2017-07-09T14:45:08.406Z,39.80
2017-07-09T14:47:36.731Z,40.30
2017-07-09T14:50:05.089Z,41.10
2017-07-09T14:52:33.415Z,42.10
2017-07-09T14:55:01.800Z,42.80
2017-07-09T14:57:30.143Z,42.70
2017-07-09T14:59:58.548Z,42.30
2017-07-09T15:02:26.891Z,42.70
2017-07-09T15:04:55.211Z,43.10
2017-07-09T15:07:23.556Z,43.30
2017-07-09T15:09:51.956Z,43.50
2017-07-09T15:12:20.302Z,43.50
2017-07-09T15:14:48.629Z,43.40
2017-07-09T15:17:16.982Z,43.10
2017-07-09T15:19:45.306Z,43.70
2017-07-09T15:22:13.620Z,43.80
2017-07-09T15:24:41.957Z,43.50
2017-07-09T15:27:10.270Z,44.00
2017-07-09T15:29:38.605Z,44.00
2017-07-09T15:32:07.048Z,43.80
2017-07-09T15:34:35.389Z,43.80
2017-07-09T15:37:03.708Z,43.60
2017-07-09T15:39:32.117Z,43.60
2017-07-09T15:42:00.437Z,43.70
2017-07-09T15:44:28.792Z,43.60
2017-07-09T15:46:57.126Z,43.40
2017-07-09T15:49:25.452Z,43.60
2017-07-09T15:51:53.797Z,43.20
2017-07-09T15:54:22.152Z,43.00
2017-07-09T15:56:50.511Z,42.80
2017-07-09T15:59:18.836Z,42.80
2017-07-09T16:01:47.228Z,42.80
2017-07-09T16:04:15.573Z,42.70
2017-07-09T16:06:43.940Z,42.90
2017-07-09T16:09:12.329Z,43.00
2017-07-09T16:11:40.652Z,42.90
2017-07-09T16:14:09.002Z,43.40
2017-07-09T16:16:37.472Z,43.00
2017-07-09T16:19:05.825Z,43.50
2017-07-09T16:21:34.140Z,42.50
2017-07-09T16:24:02.513Z,42.60
2017-07-09T16:26:30.843Z,42.80
2017-07-09T16:28:59.184Z,43.10
2017-07-09T16:31:27.531Z,42.70
2017-07-09T16:33:55.853Z,42.40
2017-07-09T16:36:24.197Z,42.00
2017-07-09T16:38:52.524Z,41.80
2017-07-09T16:41:20.875Z,41.80
2017-07-09T16:43:48.432Z,41.80
2017-07-09T16:46:16.752Z,42.30
2017-07-09T16:48:45.095Z,42.10
2017-07-09T16:51:13.424Z,41.60
2017-07-09T16:53:41.766Z,41.60
2017-07-09T16:56:10.089Z,41.50
2017-07-09T16:58:38.439Z,41.40
2017-07-09T17:01:06.768Z,41.50
2017-07-09T17:03:35.141Z,41.90
2017-07-09T17:06:03.466Z,42.50
2017-07-09T17:08:31.785Z,42.50
2017-07-09T17:11:00.124Z,42.90
2017-07-09T17:13:28.444Z,42.70
2017-07-09T17:15:56.788Z,42.80
2017-07-09T17:18:25.115Z,43.60
2017-07-09T17:20:53.469Z,43.40
2017-07-09T17:23:21.788Z,43.10
2017-07-09T17:25:50.133Z,42.90
2017-07-09T17:28:18.452Z,42.80
2017-07-09T17:30:46.778Z,42.90
2017-07-09T17:33:15.126Z,42.50
2017-07-09T17:35:43.517Z,41.80
2017-07-09T17:38:11.859Z,42.20
2017-07-09T17:40:40.184Z,41.30
2017-07-09T17:43:08.527Z,40.60
2017-07-09T17:45:36.932Z,40.50
2017-07-09T17:48:05.252Z,39.90
2017-07-09T17:50:33.609Z,39.50
2017-07-09T17:53:01.932Z,38.80
2017-07-09T17:55:30.272Z,38.40
2017-07-09T17:57:58.592Z,38.40
2017-07-09T18:00:26.932Z,38.50
2017-07-09T18:02:55.253Z,38.70
2017-07-09T18:05:23.601Z,39.30
2017-07-09T18:07:51.929Z,40.10
2017-07-09T18:10:20.254Z,40.90
2017-07-09T18:12:48.606Z,41.60
2017-07-09T18:15:16.931Z,41.20
2017-07-09T18:17:45.271Z,41.90
2017-07-09T18:20:13.589Z,42.30
2017-07-09T18:22:41.939Z,42.60
2017-07-09T18:25:10.257Z,43.20
2017-07-09T18:27:38.641Z,44.00
2017-07-09T18:30:06.958Z,44.00
2017-07-09T18:32:35.326Z,44.20
2017-07-09T18:35:03.707Z,44.40
2017-07-09T18:37:32.023Z,44.00
2017-07-09T18:40:00.363Z,44.60
2017-07-09T18:42:28.686Z,43.80
2017-07-09T18:44:57.087Z,44.40
2017-07-09T18:47:25.425Z,44.60
2017-07-09T18:49:53.772Z,44.30
2017-07-09T18:52:22.104Z,44.20
2017-07-09T18:54:50.432Z,44.20
2017-07-09T18:57:18.773Z,44.70
2017-07-09T18:59:47.150Z,45.20
2017-07-09T19:02:15.488Z,45.00
2017-07-09T19:04:43.805Z,45.30
2017-07-09T19:07:12.146Z,45.80
2017-07-09T19:09:40.466Z,45.50
2017-07-09T19:12:08.833Z,45.80
2017-07-09T19:14:37.146Z,45.80
2017-07-09T19:17:05.512Z,45.50
2017-07-09T19:19:33.859Z,45.90
2017-07-09T19:22:02.181Z,45.80
2017-07-09T19:24:30.519Z,45.90
2017-07-09T19:26:58.834Z,46.20
2017-07-09T19:29:27.184Z,46.40
2017-07-09T19:31:55.501Z,45.80
2017-07-09T19:34:23.836Z,45.90
2017-07-09T19:36:52.150Z,45.80
2017-07-09T19:39:19.750Z,45.80
2017-07-09T19:41:48.125Z,46.00
2017-07-09T19:44:16.440Z,46.70
2017-07-09T19:46:44.776Z,47.00
2017-07-09T19:49:13.091Z,47.10
2017-07-09T19:51:41.435Z,47.00
2017-07-09T19:54:09.764Z,47.20
2017-07-09T19:56:38.106Z,47.80
2017-07-09T19:59:06.423Z,47.60
2017-07-09T20:01:34.752Z,47.20
2017-07-09T20:04:03.064Z,46.70
2017-07-09T20:06:31.398Z,46.30
2017-07-09T20:08:59.704Z,46.20
2017-07-09T20:11:28.049Z,46.00
2017-07-09T20:13:56.375Z,46.00
2017-07-09T20:16:24.747Z,46.20
2017-07-09T20:18:53.093Z,46.60
2017-07-09T20:21:21.414Z,47.10
2017-07-09T20:23:49.764Z,47.10
2017-07-09T20:26:18.073Z,47.50
2017-07-09T20:28:46.414Z,47.60
2017-07-09T20:31:14.813Z,48.30
2017-07-09T20:33:42.408Z,48.30
2017-07-09T20:36:10.719Z,51.90
2017-07-09T20:38:39.032Z,54.60
2017-07-09T20:41:07.364Z,57.60
2017-07-09T20:43:35.677Z,60.00
2017-07-09T20:46:04.036Z,64.10
2017-07-09T20:48:33.001Z,67.60
2017-07-09T20:51:01.404Z,69.30
2017-07-09T20:53:29.715Z,70.60
2017-07-09T20:55:58.143Z,72.30
2017-07-09T20:58:26.460Z,72.90
2017-07-09T21:00:54.808Z,73.70
2017-07-09T21:03:23.127Z,74.60
2017-07-09T21:05:51.445Z,75.00
2017-07-09T21:08:19.785Z,75.70
2017-07-09T21:10:48.105Z,76.10
2017-07-09T21:13:16.449Z,76.90
2017-07-09T21:15:44.768Z,77.60
2017-07-09T21:18:13.125Z,78.20
2017-07-09T21:20:41.468Z,78.70
2017-07-09T21:23:09.783Z,78.80
2017-07-09T21:25:38.136Z,78.60
2017-07-09T21:28:06.560Z,78.10
2017-07-09T21:30:34.904Z,78.70
2017-07-09T21:33:03.218Z,79.40
2017-07-09T21:35:31.549Z,79.90
2017-07-09T21:37:59.864Z,80.50
2017-07-09T21:40:28.231Z,80.90
2017-07-09T21:42:55.789Z,80.90
2017-07-09T21:45:24.117Z,81.80
2017-07-09T21:47:52.464Z,82.00
2017-07-09T21:50:20.817Z,82.60
2017-07-09T21:52:49.173Z,82.60
2017-07-09T21:55:16.744Z,83.30
2017-07-09T21:57:45.104Z,81.50
2017-07-09T22:00:13.681Z,82.10
2017-07-09T22:02:42.457Z,82.80
2017-07-09T22:05:10.784Z,82.00
2017-07-09T22:07:39.117Z,82.00
2017-07-09T22:10:07.474Z,82.70
2017-07-09T22:12:35.797Z,83.10
2017-07-09T22:15:04.182Z,83.80
2017-07-09T22:17:32.509Z,84.30
2017-07-09T22:20:00.917Z,84.00
2017-07-09T22:22:29.271Z,83.00
2017-07-09T22:24:57.609Z,82.30
2017-07-09T22:27:26.019Z,81.80
2017-07-09T22:29:54.357Z,80.50
2017-07-09T22:32:22.679Z,80.90
2017-07-09T22:34:50.998Z,81.50
2017-07-09T22:37:19.345Z,81.40
2017-07-09T22:39:47.661Z,81.80
2017-07-09T22:42:15.994Z,81.70
2017-07-09T22:44:44.316Z,82.20
2017-07-09T22:47:12.657Z,82.60
2017-07-09T22:49:40.974Z,82.50
2017-07-09T22:52:09.319Z,82.60
2017-07-09T22:54:37.639Z,83.00
2017-07-09T22:57:05.962Z,84.00
2017-07-09T22:59:34.301Z,84.30
2017-07-09T23:02:02.619Z,84.70
2017-07-09T23:04:30.956Z,84.60
2017-07-09T23:06:59.276Z,84.60
2017-07-09T23:09:27.613Z,84.00
2017-07-09T23:11:55.928Z,84.40
2017-07-09T23:14:24.261Z,84.50
2017-07-09T23:16:52.576Z,84.40
2017-07-09T23:19:20.929Z,84.10
2017-07-09T23:21:49.249Z,84.10
2017-07-09T23:24:16.835Z,84.10
2017-07-09T23:26:45.152Z,84.70
2017-07-09T23:29:13.541Z,85.10
2017-07-09T23:31:41.993Z,85.40
2017-07-09T23:34:10.338Z,85.70
2017-07-09T23:36:38.658Z,85.60
2017-07-09T23:39:07.008Z,85.30
2017-07-09T23:41:35.332Z,85.10
2017-07-09T23:44:03.657Z,85.60
2017-07-09T23:46:32.000Z,86.10
2017-07-09T23:49:00.324Z,86.20
2017-07-09T23:51:28.665Z,86.10
2017-07-09T23:53:56.996Z,86.30
2017-07-09T23:56:25.332Z,86.20
2017-07-09T23:58:53.656Z,86.40
